Time;durP1;ratioP1;P1;durP2;ratioP2;P2;SDS_P1;SDS_P2;PMS_P1;PMS_P2;Temp;Humidity;BMP_temperature;BMP_pressure;BME280_temperature;BME280_humidity;BME280_pressure;Samples;Min_cycle;Max_cycle;Signal;HPM_P1;HPM_P2
2023/01/17 00:01:58;;;;;;;;;;;13.70;99.90;;;;;;5097585;28;19938;-71
2023/01/17 00:09:57;;;;;;;;;;;13.80;99.90;;;;;;5072655;28;19964;-70
2023/01/17 00:12:25;;;;;;;;;;;13.80;99.90;;;;;;5072470;28;19924;-71
2023/01/17 00:14:52;;;;;;;;;;;13.80;99.90;;;;;;5073861;28;19938;-67
2023/01/17 00:17:18;;;;;;;;;;;13.80;99.90;;;;;;5094981;28;20305;-70
2023/01/17 01:34:24;;;;;;;;;;;13.80;99.90;;;;;;5092013;28;20216;-71
2023/01/17 01:36:51;;;;;;;;;;;13.80;99.90;;;;;;5092127;28;19904;-71
2023/01/17 01:39:18;;;;;;;;;;;13.80;99.90;;;;;;5091628;28;19912;-71
2023/01/17 01:41:44;;;;;;;;;;;13.80;99.90;;;;;;5092942;28;20221;-72
2023/01/17 01:44:28;;;;;;;;;;;13.90;99.90;;;;;;5095871;28;20378;-69
2023/01/17 01:46:54;;;;;;;;;;;13.90;99.90;;;;;;5096208;28;19904;-70
2023/01/17 01:49:23;;;;;;;;;;;13.90;99.90;;;;;;5077240;28;19927;-70
2023/01/17 01:51:59;;;;;;;;;;;13.90;99.90;;;;;;5077457;28;19904;-70
2023/01/17 01:54:47;;;;;;;;;;;13.90;99.90;;;;;;5096029;28;19904;-71
2023/01/17 01:57:17;;;;;;;;;;;13.90;99.90;;;;;;5095808;28;19915;-68
2023/01/17 01:59:50;;;;;;;;;;;13.90;99.90;;;;;;5095473;28;19934;-68
2023/01/17 02:02:36;;;;;;;;;;;14.00;99.90;;;;;;5095851;28;19904;-70
2023/01/17 02:05:01;;;;;;;;;;;14.00;99.90;;;;;;5095423;28;19904;-71
2023/01/17 02:07:29;;;;;;;;;;;14.00;99.90;;;;;;5077920;28;19904;-70
2023/01/17 02:09:57;;;;;;;;;;;14.00;99.90;;;;;;5095263;28;20350;-70
2023/01/17 02:12:23;;;;;;;;;;;14.00;99.90;;;;;;5095628;28;19911;-70
2023/01/17 02:14:48;;;;;;;;;;;14.00;99.90;;;;;;5095305;28;20371;-67
2023/01/17 02:17:21;;;;;;;;;;;14.00;99.90;;;;;;5095236;28;19927;-71
2023/01/17 02:20:04;;;;;;;;;;;14.10;99.90;;;;;;5095177;28;19912;-70
2023/01/17 02:22:59;;;;;;;;;;;14.10;99.90;;;;;;5095587;28;19908;-71
2023/01/17 02:25:44;;;;;;;;;;;14.10;99.90;;;;;;5095164;28;19908;-71
2023/01/17 02:28:12;;;;;;;;;;;14.10;99.90;;;;;;5095076;28;19935;-71
2023/01/17 02:30:48;;;;;;;;;;;14.10;99.90;;;;;;5095087;28;19904;-71
2023/01/17 02:33:20;;;;;;;;;;;14.20;99.90;;;;;;5095180;28;20422;-71
2023/01/17 02:36:02;;;;;;;;;;;14.20;99.90;;;;;;5094680;28;20054;-71
2023/01/17 02:38:31;;;;;;;;;;;14.20;99.90;;;;;;5094794;28;19903;-71
2023/01/17 02:41:01;;;;;;;;;;;14.20;99.90;;;;;;5095251;28;19984;-71
2023/01/17 02:43:26;;;;;;;;;;;14.20;99.90;;;;;;5095592;28;20244;-71
2023/01/17 02:45:53;;;;;;;;;;;14.30;99.90;;;;;;5095304;28;19911;-70
2023/01/17 02:48:23;;;;;;;;;;;14.30;99.90;;;;;;5093856;28;19904;-71
2023/01/17 02:51:04;;;;;;;;;;;14.30;99.90;;;;;;5076536;28;20310;-71
2023/01/17 02:53:35;;;;;;;;;;;14.30;99.90;;;;;;5093213;28;19904;-71
2023/01/17 02:56:08;;;;;;;;;;;14.30;99.90;;;;;;5095002;28;19927;-72
2023/01/17 02:58:33;;;;;;;;;;;14.40;99.90;;;;;;5094621;28;19904;-71
2023/01/17 03:01:10;;;;;;;;;;;14.40;99.90;;;;;;5076278;28;19914;-71
2023/01/17 03:03:45;;;;;;;;;;;14.40;99.90;;;;;;5076506;28;19904;-71
2023/01/17 03:06:17;;;;;;;;;;;14.40;99.90;;;;;;5094138;28;20263;-71
2023/01/17 03:08:46;;;;;;;;;;;14.40;99.90;;;;;;5094136;28;20323;-70
2023/01/17 03:11:12;;;;;;;;;;;14.40;99.90;;;;;;5075918;28;19911;-70
2023/01/17 03:13:40;;;;;;;;;;;14.40;99.90;;;;;;5094685;28;19904;-70
2023/01/17 03:16:07;;;;;;;;;;;14.40;99.90;;;;;;5094103;28;19904;-70
2023/01/17 03:18:35;;;;;;;;;;;14.30;99.90;;;;;;5093978;28;19907;-71
2023/01/17 03:21:01;;;;;;;;;;;14.40;99.90;;;;;;5094000;28;20422;-70
2023/01/17 03:23:28;;;;;;;;;;;14.40;99.90;;;;;;5094219;28;19950;-71
2023/01/17 03:25:54;;;;;;;;;;;14.40;99.90;;;;;;5075570;28;19904;-71
2023/01/17 03:28:21;;;;;;;;;;;14.30;99.90;;;;;;5094254;28;19949;-70
2023/01/17 03:30:47;;;;;;;;;;;14.30;99.90;;;;;;5075337;28;20073;-71
2023/01/17 03:33:15;;;;;;;;;;;14.30;99.90;;;;;;5075623;28;19945;-71
2023/01/17 03:35:43;;;;;;;;;;;14.30;99.90;;;;;;5093128;28;19904;-70
2023/01/17 03:38:09;;;;;;;;;;;14.20;99.90;;;;;;5093876;28;19904;-71
2023/01/17 03:40:34;;;;;;;;;;;14.20;99.90;;;;;;5093782;28;19926;-70
2023/01/17 03:43:00;;;;;;;;;;;14.20;99.90;;;;;;5075442;28;20306;-71
2023/01/17 03:45:26;;;;;;;;;;;14.20;99.90;;;;;;5093822;28;20002;-70
2023/01/17 03:47:55;;;;;;;;;;;14.10;99.90;;;;;;5093683;28;19904;-71
2023/01/17 03:50:21;;;;;;;;;;;14.10;99.90;;;;;;5093100;28;19930;-70
2023/01/17 03:52:47;;;;;;;;;;;14.10;99.90;;;;;;5092755;28;19908;-70
2023/01/17 03:55:13;;;;;;;;;;;14.10;99.90;;;;;;5092310;28;20086;-70
2023/01/17 03:57:40;;;;;;;;;;;14.10;99.90;;;;;;5092759;28;19980;-70
2023/01/17 04:00:08;;;;;;;;;;;14.10;99.90;;;;;;5092038;28;20004;-69
2023/01/17 04:02:35;;;;;;;;;;;14.10;99.90;;;;;;5092463;28;20279;-70
2023/01/17 04:05:02;;;;;;;;;;;14.10;99.90;;;;;;5091960;28;20248;-68
2023/01/17 04:07:29;;;;;;;;;;;14.20;99.90;;;;;;5093134;28;19904;-70
2023/01/17 04:09:56;;;;;;;;;;;14.10;99.90;;;;;;5093577;28;19908;-69
2023/01/17 04:12:22;;;;;;;;;;;14.20;99.90;;;;;;5093330;28;19950;-69
2023/01/17 04:14:47;;;;;;;;;;;14.20;99.90;;;;;;5093409;28;19904;-70
2023/01/17 04:17:17;;;;;;;;;;;14.20;99.90;;;;;;5074813;28;19904;-70
2023/01/17 04:19:45;;;;;;;;;;;14.20;99.90;;;;;;5074626;28;20302;-69
2023/01/17 04:22:11;;;;;;;;;;;14.20;99.90;;;;;;5093068;28;19922;-69
2023/01/17 04:24:39;;;;;;;;;;;14.20;99.90;;;;;;5093003;28;19904;-67
2023/01/17 04:27:06;;;;;;;;;;;14.30;99.90;;;;;;5074976;28;20248;-69
2023/01/17 04:29:32;;;;;;;;;;;14.30;99.90;;;;;;5074669;28;20243;-70
2023/01/17 04:31:57;;;;;;;;;;;14.20;99.90;;;;;;5093123;28;20010;-71
2023/01/17 04:34:24;;;;;;;;;;;14.20;99.90;;;;;;5093130;28;19910;-70
2023/01/17 04:36:50;;;;;;;;;;;14.20;99.90;;;;;;5112579;28;19907;-70
2023/01/17 04:39:15;;;;;;;;;;;14.20;99.90;;;;;;5113441;28;19914;-70
2023/01/17 04:41:42;;;;;;;;;;;14.10;99.90;;;;;;5113285;28;19953;-68
2023/01/17 04:44:08;;;;;;;;;;;14.10;99.90;;;;;;5113308;28;19904;-69
2023/01/17 04:46:35;;;;;;;;;;;14.20;99.90;;;;;;5113683;28;19915;-72
2023/01/17 04:49:04;;;;;;;;;;;14.10;99.90;;;;;;5113440;28;20417;-70
2023/01/17 04:51:29;;;;;;;;;;;14.10;99.90;;;;;;5113115;28;19952;-70
2023/01/17 04:53:55;;;;;;;;;;;14.10;99.90;;;;;;5113286;28;19907;-68
2023/01/17 04:56:21;;;;;;;;;;;14.10;99.90;;;;;;5094863;28;20221;-65
2023/01/17 04:58:48;;;;;;;;;;;14.00;99.90;;;;;;5112826;28;20011;-66
2023/01/17 05:01:14;;;;;;;;;;;14.00;99.90;;;;;;5113218;28;19969;-65
2023/01/17 05:03:40;;;;;;;;;;;14.00;99.90;;;;;;5104891;28;20332;-70
2023/01/17 05:06:08;;;;;;;;;;;14.00;99.90;;;;;;5092067;28;19904;-70
2023/01/17 05:08:34;;;;;;;;;;;13.90;99.90;;;;;;5091868;28;19955;-70
2023/01/17 05:11:00;;;;;;;;;;;13.80;99.90;;;;;;5092311;28;19923;-70
2023/01/17 05:13:25;;;;;;;;;;;13.80;99.90;;;;;;5092461;28;19915;-70
2023/01/17 05:15:51;;;;;;;;;;;13.80;99.90;;;;;;5091882;28;20256;-70
2023/01/17 05:18:18;;;;;;;;;;;13.70;99.90;;;;;;5092564;28;20011;-70
2023/01/17 05:20:45;;;;;;;;;;;13.60;99.90;;;;;;5092556;28;19919;-69
2023/01/17 05:23:10;;;;;;;;;;;13.60;99.90;;;;;;5092753;28;19940;-70
2023/01/17 05:25:41;;;;;;;;;;;13.60;99.90;;;;;;5093198;28;19904;-70
2023/01/17 05:28:07;;;;;;;;;;;13.60;99.90;;;;;;5092657;28;20033;-70
2023/01/17 05:30:33;;;;;;;;;;;13.50;99.90;;;;;;5092438;28;19932;-70
2023/01/17 05:32:59;;;;;;;;;;;13.60;99.90;;;;;;5074729;28;20335;-70
2023/01/17 05:35:27;;;;;;;;;;;13.50;99.90;;;;;;5092359;28;20010;-69
2023/01/17 05:37:53;;;;;;;;;;;13.50;99.90;;;;;;5092849;28;19957;-70
2023/01/17 05:40:22;;;;;;;;;;;13.50;99.90;;;;;;5092520;28;20392;-70
2023/01/17 05:42:49;;;;;;;;;;;13.50;99.90;;;;;;5092748;28;19904;-70
2023/01/17 05:45:18;;;;;;;;;;;13.50;99.90;;;;;;5093005;28;20316;-70
2023/01/17 05:47:44;;;;;;;;;;;13.40;99.90;;;;;;5092448;28;19920;-71
2023/01/17 05:50:11;;;;;;;;;;;13.40;99.90;;;;;;5092746;28;19951;-67
2023/01/17 05:52:36;;;;;;;;;;;13.50;99.90;;;;;;5092834;28;20023;-69
2023/01/17 05:55:02;;;;;;;;;;;13.50;99.90;;;;;;5092509;28;20008;-70
2023/01/17 05:57:28;;;;;;;;;;;13.50;99.90;;;;;;5092504;28;19904;-67
2023/01/17 05:59:55;;;;;;;;;;;13.50;99.90;;;;;;5092220;28;20023;-67
2023/01/17 06:02:21;;;;;;;;;;;13.60;99.90;;;;;;5092176;28;20332;-70
2023/01/17 06:04:47;;;;;;;;;;;13.90;99.90;;;;;;5092373;28;19915;-70
2023/01/17 06:07:12;;;;;;;;;;;14.00;99.90;;;;;;5092431;28;20352;-71
2023/01/17 06:09:38;;;;;;;;;;;14.00;99.90;;;;;;5074094;28;19927;-71
2023/01/17 06:12:04;;;;;;;;;;;14.10;99.90;;;;;;5092166;28;19904;-70
2023/01/17 06:14:30;;;;;;;;;;;14.20;99.90;;;;;;5092489;28;19911;-70
2023/01/17 06:16:56;;;;;;;;;;;14.00;99.90;;;;;;5092478;28;19960;-70
2023/01/17 06:19:21;;;;;;;;;;;14.00;99.90;;;;;;5092940;28;20213;-70
2023/01/17 06:21:47;;;;;;;;;;;14.10;99.90;;;;;;5092438;28;19904;-70
2023/01/17 06:24:13;;;;;;;;;;;14.00;99.90;;;;;;5092550;28;19904;-69
2023/01/17 06:26:39;;;;;;;;;;;14.00;99.90;;;;;;5090915;28;19904;-70
2023/01/17 06:29:04;;;;;;;;;;;14.00;99.90;;;;;;5092296;28;20321;-71
2023/01/17 06:31:30;;;;;;;;;;;14.00;99.90;;;;;;5094399;28;19912;-70
2023/01/17 06:33:56;;;;;;;;;;;14.00;99.90;;;;;;5094367;28;19904;-70
2023/01/17 06:36:23;;;;;;;;;;;14.00;99.90;;;;;;5093846;28;20241;-70
2023/01/17 06:38:50;;;;;;;;;;;13.90;99.90;;;;;;5093808;28;19904;-69
2023/01/17 06:41:15;;;;;;;;;;;14.00;99.90;;;;;;5094349;28;19912;-70
2023/01/17 06:43:43;;;;;;;;;;;14.10;99.90;;;;;;5094586;28;19969;-70
2023/01/17 06:46:08;;;;;;;;;;;14.10;99.90;;;;;;5094176;28;20072;-71
2023/01/17 06:48:35;;;;;;;;;;;14.10;99.90;;;;;;5094158;28;19955;-72
2023/01/17 06:51:01;;;;;;;;;;;14.10;99.90;;;;;;5093712;28;19904;-72
2023/01/17 06:53:27;;;;;;;;;;;14.20;99.90;;;;;;5093374;28;19904;-72
2023/01/17 06:55:56;;;;;;;;;;;14.20;99.90;;;;;;5094267;28;19989;-71
2023/01/17 06:58:22;;;;;;;;;;;14.40;99.90;;;;;;5091814;28;19953;-71
2023/01/17 07:00:48;;;;;;;;;;;14.40;99.90;;;;;;5092950;28;20375;-72
2023/01/17 07:03:17;;;;;;;;;;;14.50;99.90;;;;;;5092984;28;19904;-71
2023/01/17 07:05:43;;;;;;;;;;;14.60;99.90;;;;;;5084472;28;19994;-69
2023/01/17 07:08:09;;;;;;;;;;;14.60;99.90;;;;;;5091734;28;20348;-71
2023/01/17 07:10:35;;;;;;;;;;;14.70;99.90;;;;;;5093333;28;19908;-72
2023/01/17 07:13:01;;;;;;;;;;;14.80;99.90;;;;;;5092836;28;19995;-71
2023/01/17 07:15:27;;;;;;;;;;;14.80;99.90;;;;;;5093470;28;19957;-72
2023/01/17 07:17:53;;;;;;;;;;;14.90;99.90;;;;;;5093119;28;19904;-71
2023/01/17 07:20:18;;;;;;;;;;;15.20;99.90;;;;;;5093088;28;19955;-70
2023/01/17 07:22:44;;;;;;;;;;;15.40;99.90;;;;;;5091834;28;20279;-73
2023/01/17 07:25:11;;;;;;;;;;;15.70;99.90;;;;;;5093072;28;19939;-70
2023/01/17 07:27:37;;;;;;;;;;;15.90;99.90;;;;;;5093163;28;19904;-71
2023/01/17 07:30:04;;;;;;;;;;;16.10;99.90;;;;;;5092812;28;19998;-71
2023/01/17 07:32:30;;;;;;;;;;;16.50;99.90;;;;;;5040939;28;1975361;-71
2023/01/17 07:34:57;;;;;;;;;;;16.70;99.90;;;;;;5096042;28;19946;-72
2023/01/17 07:37:25;;;;;;;;;;;17.00;99.90;;;;;;5114728;28;20331;-71
2023/01/17 07:39:51;;;;;;;;;;;17.30;99.90;;;;;;5095201;28;20360;-72
2023/01/17 07:42:17;;;;;;;;;;;17.40;99.90;;;;;;5114391;28;19904;-72
2023/01/17 07:44:44;;;;;;;;;;;17.40;99.90;;;;;;5093490;28;20264;-70
2023/01/17 07:47:11;;;;;;;;;;;17.60;99.90;;;;;;5094213;28;19923;-71
2023/01/17 07:49:37;;;;;;;;;;;17.40;99.90;;;;;;5075546;28;20042;-67
2023/01/17 07:52:05;;;;;;;;;;;17.30;99.90;;;;;;5075564;28;19961;-71
2023/01/17 07:54:31;;;;;;;;;;;17.40;99.90;;;;;;5075363;28;19929;-66
2023/01/17 07:56:57;;;;;;;;;;;17.20;99.90;;;;;;5094040;28;19983;-72
2023/01/17 07:59:23;;;;;;;;;;;17.10;99.90;;;;;;5093542;28;20270;-72
2023/01/17 08:01:50;;;;;;;;;;;17.00;99.90;;;;;;5093788;28;19904;-69
2023/01/17 08:04:16;;;;;;;;;;;16.90;99.90;;;;;;5094081;28;19908;-73
2023/01/17 08:06:43;;;;;;;;;;;16.70;99.90;;;;;;5093616;28;19904;-71
2023/01/17 08:09:08;;;;;;;;;;;16.70;99.90;;;;;;5093552;28;19904;-72
2023/01/17 08:11:34;;;;;;;;;;;16.50;99.90;;;;;;5093515;28;19999;-72
2023/01/17 08:14:00;;;;;;;;;;;16.40;99.90;;;;;;5093265;28;19904;-70
2023/01/17 08:16:27;;;;;;;;;;;16.30;99.90;;;;;;5094042;28;19915;-73
2023/01/17 08:18:53;;;;;;;;;;;16.30;99.90;;;;;;5094013;28;19969;-71
2023/01/17 08:21:19;;;;;;;;;;;16.20;99.90;;;;;;5093590;28;19908;-71
2023/01/17 08:23:48;;;;;;;;;;;16.10;99.90;;;;;;5093626;28;19911;-72
2023/01/17 08:26:20;;;;;;;;;;;16.10;99.90;;;;;;5093471;28;19904;-72
2023/01/17 08:28:53;;;;;;;;;;;16.00;99.90;;;;;;5093109;28;19908;-79
2023/01/17 08:31:19;;;;;;;;;;;16.00;99.90;;;;;;5093494;28;20279;-73
2023/01/17 08:33:46;;;;;;;;;;;15.90;99.90;;;;;;5075308;28;19908;-73
2023/01/17 08:36:12;;;;;;;;;;;16.00;99.90;;;;;;5075455;28;19908;-76
2023/01/17 08:38:38;;;;;;;;;;;16.00;99.90;;;;;;5093790;28;19904;-71
2023/01/17 08:41:04;;;;;;;;;;;16.00;99.90;;;;;;5093374;28;19911;-71
2023/01/17 08:43:30;;;;;;;;;;;16.00;99.90;;;;;;5093390;28;20349;-71
2023/01/17 08:45:55;;;;;;;;;;;16.10;99.90;;;;;;5093067;28;19957;-70
2023/01/17 08:48:22;;;;;;;;;;;16.40;99.90;;;;;;5093303;28;19904;-71
2023/01/17 08:50:48;;;;;;;;;;;16.60;99.90;;;;;;5092874;28;20362;-72
2023/01/17 08:53:15;;;;;;;;;;;16.70;99.90;;;;;;5093157;28;20002;-74
2023/01/17 08:55:40;;;;;;;;;;;16.70;99.90;;;;;;5092921;28;19904;-74
2023/01/17 08:58:07;;;;;;;;;;;16.70;99.90;;;;;;5092259;28;20275;-74
2023/01/17 09:00:33;;;;;;;;;;;16.70;99.90;;;;;;5073930;28;19916;-73
2023/01/17 09:03:00;;;;;;;;;;;16.70;99.90;;;;;;5092763;28;20027;-70
2023/01/17 09:05:27;;;;;;;;;;;16.90;99.90;;;;;;5092008;28;19961;-71
2023/01/17 09:07:55;;;;;;;;;;;17.10;99.90;;;;;;5092402;28;19904;-72
2023/01/17 09:10:22;;;;;;;;;;;17.10;99.90;;;;;;5091811;28;19980;-72
2023/01/17 09:12:48;;;;;;;;;;;17.20;99.90;;;;;;5091988;28;20355;-71
2023/01/17 09:15:18;;;;;;;;;;;17.40;99.90;;;;;;5092211;28;20070;-73
2023/01/17 09:17:45;;;;;;;;;;;17.80;99.90;;;;;;5092131;28;19954;-71
2023/01/17 09:20:11;;;;;;;;;;;18.20;99.90;;;;;;5092565;28;19912;-72
2023/01/17 09:22:37;;;;;;;;;;;18.40;99.90;;;;;;5092200;28;20007;-71
2023/01/17 09:25:04;;;;;;;;;;;18.60;99.90;;;;;;5092180;28;19914;-71
2023/01/17 09:27:30;;;;;;;;;;;19.00;99.90;;;;;;5092677;28;20015;-72
2023/01/17 09:29:56;;;;;;;;;;;19.10;99.90;;;;;;5092553;28;19959;-72
2023/01/17 09:32:21;;;;;;;;;;;19.10;99.90;;;;;;5074053;28;19920;-71
2023/01/17 09:34:50;;;;;;;;;;;19.30;99.90;;;;;;5092506;28;20347;-68
2023/01/17 09:37:15;;;;;;;;;;;19.30;99.90;;;;;;5074161;28;20006;-70
2023/01/17 09:39:41;;;;;;;;;;;19.20;99.90;;;;;;5091988;28;20006;-71
2023/01/17 09:42:21;;;;;;;;;;;19.20;99.90;;;;;;5074016;28;19931;-71
2023/01/17 09:44:51;;;;;;;;;;;19.20;99.90;;;;;;5091961;28;20014;-72
2023/01/17 09:47:55;;;;;;;;;;;19.30;99.90;;;;;;5092060;28;19927;-69
2023/01/17 09:50:26;;;;;;;;;;;19.30;99.90;;;;;;4990788;28;19942;-71
2023/01/17 09:52:59;;;;;;;;;;;19.20;99.90;;;;;;4990515;28;20008;-73
2023/01/17 09:55:26;;;;;;;;;;;19.30;99.90;;;;;;4995488;28;19912;-72
2023/01/17 09:58:12;;;;;;;;;;;19.40;99.90;;;;;;4997543;28;19990;-72
2023/01/17 10:00:41;;;;;;;;;;;19.40;99.90;;;;;;4993319;28;19913;-72
2023/01/17 10:03:16;;;;;;;;;;;19.40;99.90;;;;;;5012001;28;19995;-72
2023/01/17 10:05:57;;;;;;;;;;;19.60;99.90;;;;;;5014621;28;19905;-69
2023/01/17 10:08:39;;;;;;;;;;;19.40;99.90;;;;;;5013789;28;20318;-73
2023/01/17 10:11:14;;;;;;;;;;;19.20;99.90;;;;;;5013743;28;20003;-74
2023/01/17 10:13:43;;;;;;;;;;;19.40;99.90;;;;;;5001133;28;19925;-72
2023/01/17 10:16:14;;;;;;;;;;;19.70;99.90;;;;;;5013841;28;20318;-73
2023/01/17 10:19:14;;;;;;;;;;;19.80;99.90;;;;;;5014437;28;19975;-73
2023/01/17 10:21:40;;;;;;;;;;;19.90;99.90;;;;;;5070525;28;19970;-71
2023/01/17 10:24:21;;;;;;;;;;;19.80;99.90;;;;;;5095487;28;19912;-72
2023/01/17 10:26:49;;;;;;;;;;;19.50;99.90;;;;;;5095843;28;20409;-71
2023/01/17 10:29:20;;;;;;;;;;;19.40;99.90;;;;;;5094703;28;19927;-71
2023/01/17 10:31:50;;;;;;;;;;;19.50;99.90;;;;;;5059895;28;19931;-73
2023/01/17 10:34:24;;;;;;;;;;;19.60;99.90;;;;;;5094555;28;19908;-72
2023/01/17 10:36:53;;;;;;;;;;;19.50;99.90;;;;;;5093230;28;19904;-75
2023/01/17 10:39:22;;;;;;;;;;;19.60;99.90;;;;;;5092403;28;19946;-71
2023/01/17 10:42:06;;;;;;;;;;;19.60;99.90;;;;;;5094265;28;19998;-70
2023/01/17 10:44:38;;;;;;;;;;;19.70;99.90;;;;;;5112085;28;20244;-73
2023/01/17 10:47:07;;;;;;;;;;;19.60;99.90;;;;;;5096448;28;20348;-74
2023/01/17 10:49:33;;;;;;;;;;;19.50;99.90;;;;;;5114788;28;19914;-71
2023/01/17 10:52:11;;;;;;;;;;;19.50;99.90;;;;;;5114196;28;19904;-74
2023/01/17 10:54:57;;;;;;;;;;;19.40;99.90;;;;;;5114028;28;19911;-73
2023/01/17 10:57:25;;;;;;;;;;;19.40;99.90;;;;;;5114546;28;19908;-73
2023/01/17 10:59:51;;;;;;;;;;;19.80;99.90;;;;;;5114803;28;19907;-72
2023/01/17 11:02:34;;;;;;;;;;;19.80;99.90;;;;;;5114474;28;19983;-74
2023/01/17 11:05:02;;;;;;;;;;;19.80;99.90;;;;;;5115006;28;20320;-73
2023/01/17 11:07:28;;;;;;;;;;;20.00;99.90;;;;;;5114139;28;19910;-73
2023/01/17 11:09:56;;;;;;;;;;;19.80;99.90;;;;;;5114076;28;19915;-68
2023/01/17 11:12:43;;;;;;;;;;;19.70;99.90;;;;;;5082655;28;19904;-69
2023/01/17 11:15:30;;;;;;;;;;;19.70;99.90;;;;;;5083195;28;20003;-74
2023/01/17 11:18:01;;;;;;;;;;;19.40;99.90;;;;;;5041924;28;20124;-73
2023/01/17 11:23:26;;;;;;;;;;;19.20;99.90;;;;;;5022867;22;19921;-72
2023/01/17 11:26:01;;;;;;;;;;;19.20;99.90;;;;;;5015600;28;19912;-72
2023/01/17 11:28:34;;;;;;;;;;;19.40;99.90;;;;;;5033995;28;20087;-73
2023/01/17 11:31:07;;;;;;;;;;;19.70;99.90;;;;;;5034327;28;19912;-73
2023/01/17 11:33:43;;;;;;;;;;;19.70;99.90;;;;;;5034182;28;19920;-74
2023/01/17 11:36:31;;;;;;;;;;;19.50;99.90;;;;;;5083672;22;20015;-72
2023/01/17 11:39:32;;;;;;;;;;;19.50;99.90;;;;;;5053999;28;20156;-73
2023/01/17 11:42:29;;;;;;;;;;;19.70;99.90;;;;;;4972895;28;19910;-75
2023/01/17 11:48:11;;;;;;;;;;;19.70;99.90;;;;;;4877847;29;19914;-75
2023/01/17 11:50:57;;;;;;;;;;;19.70;99.90;;;;;;4876195;29;19943;-74
2023/01/17 11:53:31;;;;;;;;;;;19.60;99.90;;;;;;4877445;29;19908;-74
2023/01/17 11:56:17;;;;;;;;;;;19.50;99.90;;;;;;4877292;29;19908;-72
2023/01/17 11:58:44;;;;;;;;;;;19.40;99.90;;;;;;4876805;29;20364;-72
2023/01/17 12:01:28;;;;;;;;;;;19.50;99.90;;;;;;4877174;29;19915;-73
2023/01/17 12:04:02;;;;;;;;;;;19.40;99.90;;;;;;4877808;29;19915;-73
2023/01/17 12:06:48;;;;;;;;;;;19.20;99.90;;;;;;4877599;29;19908;-72
2023/01/17 12:09:21;;;;;;;;;;;18.90;99.90;;;;;;4876951;29;19999;-72
2023/01/17 12:14:55;;;;;;;;;;;18.90;99.90;;;;;;4896944;29;19955;-73
2023/01/17 12:17:33;;;;;;;;;;;19.20;99.90;;;;;;4952544;29;20060;-72
2023/01/17 12:20:03;;;;;;;;;;;19.20;99.90;;;;;;4953528;29;20378;-74
2023/01/17 12:22:43;;;;;;;;;;;18.90;99.90;;;;;;4953854;29;19906;-75
2023/01/17 12:25:19;;;;;;;;;;;18.90;99.90;;;;;;4995570;28;20012;-71
2023/01/17 12:28:03;;;;;;;;;;;18.80;99.90;;;;;;5033905;28;19916;-72
2023/01/17 12:30:34;;;;;;;;;;;18.60;99.90;;;;;;5016358;28;20257;-70
2023/01/17 12:33:18;;;;;;;;;;;18.40;99.90;;;;;;5042458;28;20311;-73
2023/01/17 12:35:55;;;;;;;;;;;18.40;99.90;;;;;;5061068;28;19924;-72
2023/01/17 12:38:25;;;;;;;;;;;18.60;99.90;;;;;;5072530;28;19904;-71
2023/01/17 12:41:10;;;;;;;;;;;18.50;99.90;;;;;;5054529;28;20257;-74
2023/01/17 12:43:38;;;;;;;;;;;18.60;99.90;;;;;;5062873;28;19905;-73
2023/01/17 12:46:19;;;;;;;;;;;18.70;99.90;;;;;;5053302;28;20320;-73
2023/01/17 12:48:49;;;;;;;;;;;18.50;99.90;;;;;;5053263;28;19905;-72
2023/01/17 12:51:35;;;;;;;;;;;18.40;99.90;;;;;;5034623;28;19912;-71
2023/01/17 12:54:19;;;;;;;;;;;18.20;99.90;;;;;;5049665;28;19904;-74
2023/01/17 12:56:48;;;;;;;;;;;18.00;99.90;;;;;;5053033;28;19911;-75
2023/01/17 12:59:14;;;;;;;;;;;18.00;99.90;;;;;;5052445;28;19908;-73
2023/01/17 13:02:00;;;;;;;;;;;17.90;99.90;;;;;;5051968;28;19991;-74
2023/01/17 13:04:40;;;;;;;;;;;18.10;99.90;;;;;;5034879;28;19920;-73
2023/01/17 13:07:25;;;;;;;;;;;17.90;99.90;;;;;;5052353;28;19905;-73
2023/01/17 13:09:54;;;;;;;;;;;17.90;99.90;;;;;;5052864;28;19905;-71
2023/01/17 13:12:20;;;;;;;;;;;18.10;99.90;;;;;;5035822;28;19908;-69
2023/01/17 13:14:47;;;;;;;;;;;18.10;99.90;;;;;;5052546;28;19958;-72
2023/01/17 13:17:15;;;;;;;;;;;18.20;99.90;;;;;;5052534;28;20364;-71
2023/01/17 13:20:00;;;;;;;;;;;18.50;99.90;;;;;;5052959;28;20000;-73
2023/01/17 13:22:30;;;;;;;;;;;18.50;99.90;;;;;;5052753;28;19905;-74
2023/01/17 13:25:22;;;;;;;;;;;18.60;99.90;;;;;;5052692;28;19927;-74
2023/01/17 13:28:06;;;;;;;;;;;18.50;99.90;;;;;;5034657;28;19912;-70
2023/01/17 13:30:32;;;;;;;;;;;18.40;99.90;;;;;;5052274;28;19916;-70
2023/01/17 13:33:16;;;;;;;;;;;18.10;99.90;;;;;;5053095;28;19905;-71
2023/01/17 13:35:53;;;;;;;;;;;18.00;99.90;;;;;;5052692;28;20083;-69
2023/01/17 13:38:37;;;;;;;;;;;17.80;99.90;;;;;;5051807;28;19904;-70
2023/01/17 13:41:09;;;;;;;;;;;17.70;99.90;;;;;;5053232;28;20019;-70
2023/01/17 13:43:39;;;;;;;;;;;17.70;99.90;;;;;;5052583;28;20404;-71
2023/01/17 13:46:06;;;;;;;;;;;17.70;99.90;;;;;;5052737;28;19905;-72
2023/01/17 13:48:40;;;;;;;;;;;17.60;99.90;;;;;;5034420;28;20375;-71
2023/01/17 13:51:07;;;;;;;;;;;17.70;99.90;;;;;;5034322;28;19911;-72
2023/01/17 13:53:33;;;;;;;;;;;17.60;99.90;;;;;;5017480;28;19950;-71
2023/01/17 13:56:18;;;;;;;;;;;17.60;99.90;;;;;;5052547;28;19905;-71
2023/01/17 13:58:53;;;;;;;;;;;17.40;99.90;;;;;;5052339;28;19905;-67
2023/01/17 14:01:22;;;;;;;;;;;17.40;99.90;;;;;;5034170;28;19913;-67
2023/01/17 14:03:48;;;;;;;;;;;17.30;99.90;;;;;;5052123;28;19959;-72
2023/01/17 14:06:27;;;;;;;;;;;17.20;99.90;;;;;;5052198;28;19950;-71
2023/01/17 14:08:53;;;;;;;;;;;17.10;99.90;;;;;;5052580;28;19912;-71
2023/01/17 14:11:19;;;;;;;;;;;17.00;99.90;;;;;;5052371;28;19909;-74
2023/01/17 14:13:48;;;;;;;;;;;17.10;99.90;;;;;;5052605;28;19905;-75
2023/01/17 14:16:20;;;;;;;;;;;17.20;99.90;;;;;;5051697;28;19905;-75
2023/01/17 14:18:46;;;;;;;;;;;17.20;99.90;;;;;;5034440;28;19931;-75
2023/01/17 14:21:18;;;;;;;;;;;17.20;99.90;;;;;;5018345;28;19917;-74
2023/01/17 14:23:56;;;;;;;;;;;17.10;99.90;;;;;;5034545;28;19905;-73
2023/01/17 14:26:35;;;;;;;;;;;17.20;99.90;;;;;;5052278;28;19912;-74
2023/01/17 14:29:20;;;;;;;;;;;17.40;99.90;;;;;;5052557;28;19912;-74
2023/01/17 14:31:45;;;;;;;;;;;17.40;99.90;;;;;;5052254;28;19905;-71
2023/01/17 14:34:12;;;;;;;;;;;17.40;99.90;;;;;;5052633;28;19911;-73
2023/01/17 14:36:38;;;;;;;;;;;17.40;99.90;;;;;;5067534;28;19916;-71
2023/01/17 14:39:19;;;;;;;;;;;17.30;99.90;;;;;;5061726;28;20398;-74
2023/01/17 14:41:44;;;;;;;;;;;17.30;99.90;;;;;;5052379;28;20360;-73
2023/01/17 14:44:11;;;;;;;;;;;17.30;99.90;;;;;;5066660;28;19911;-73
2023/01/17 14:46:38;;;;;;;;;;;17.20;99.90;;;;;;5072449;28;19905;-73
2023/01/17 14:49:05;;;;;;;;;;;17.20;99.90;;;;;;5073484;28;20260;-73
2023/01/17 14:51:35;;;;;;;;;;;17.20;99.90;;;;;;5074965;28;19930;-72
2023/01/17 14:54:14;;;;;;;;;;;17.20;99.90;;;;;;5075087;28;20268;-76
2023/01/17 14:56:40;;;;;;;;;;;17.10;99.90;;;;;;5074913;28;19912;-74
2023/01/17 14:59:26;;;;;;;;;;;17.10;99.90;;;;;;5056421;28;19904;-74
2023/01/17 15:01:59;;;;;;;;;;;17.10;99.90;;;;;;5074265;28;19912;-73
2023/01/17 15:04:26;;;;;;;;;;;17.10;99.90;;;;;;5056651;28;19954;-73
2023/01/17 15:06:56;;;;;;;;;;;17.20;99.90;;;;;;5074717;28;19905;-73
2023/01/17 15:09:23;;;;;;;;;;;17.20;99.90;;;;;;5074271;28;19912;-74
2023/01/17 15:11:51;;;;;;;;;;;17.20;99.90;;;;;;5074666;28;19965;-72
2023/01/17 15:14:20;;;;;;;;;;;17.30;99.90;;;;;;5040564;28;19999;-73
2023/01/17 15:16:46;;;;;;;;;;;17.30;99.90;;;;;;5054070;28;19904;-73
2023/01/17 15:19:12;;;;;;;;;;;17.40;99.90;;;;;;5053987;28;19923;-75
2023/01/17 15:21:45;;;;;;;;;;;17.40;99.90;;;;;;5036445;28;19916;-72
2023/01/17 15:24:33;;;;;;;;;;;17.40;99.90;;;;;;5036345;28;19995;-72
2023/01/17 15:27:00;;;;;;;;;;;17.30;99.90;;;;;;5054017;28;20260;-74
2023/01/17 15:29:27;;;;;;;;;;;17.30;99.90;;;;;;5053851;28;19904;-73
2023/01/17 15:31:57;;;;;;;;;;;17.40;99.90;;;;;;5053871;28;19912;-71
2023/01/17 15:34:32;;;;;;;;;;;17.40;99.90;;;;;;5053201;28;19928;-72
2023/01/17 15:37:18;;;;;;;;;;;17.50;99.90;;;;;;5053688;28;19923;-72
2023/01/17 15:39:44;;;;;;;;;;;17.40;99.90;;;;;;5052021;28;19913;-73
2023/01/17 15:42:25;;;;;;;;;;;17.30;99.90;;;;;;5053586;28;19912;-72
2023/01/17 15:44:54;;;;;;;;;;;17.20;99.90;;;;;;5053698;28;19913;-73
2023/01/17 15:47:31;;;;;;;;;;;17.10;99.90;;;;;;5053522;28;19905;-71
2023/01/17 15:49:59;;;;;;;;;;;17.10;99.90;;;;;;5053282;28;19905;-75
2023/01/17 15:52:25;;;;;;;;;;;17.10;99.90;;;;;;5053448;28;19913;-70
2023/01/17 15:54:54;;;;;;;;;;;17.00;99.90;;;;;;5053711;28;19984;-71
2023/01/17 15:57:28;;;;;;;;;;;17.00;99.90;;;;;;5053233;28;19912;-74
2023/01/17 15:59:55;;;;;;;;;;;17.00;99.90;;;;;;5034517;28;20368;-75
2023/01/17 16:02:28;;;;;;;;;;;16.80;99.90;;;;;;5053157;28;20218;-70
2023/01/17 16:04:54;;;;;;;;;;;16.60;99.90;;;;;;5035120;28;20321;-73